This is the latest recevied weather packets stored in our database for station/object LX1CU-13. If no packets are shown the sender has not sent any weather packets the latest 1 day(s).
| Time | Temp. | Humidity | Pressure | Rain* | Wind** | Luminosity | Snow |
|---|---|---|---|---|---|---|---|
| 1778061510 | 12.78° C | 81% | 1002.7 hPa | 0 mm | - | - | - |
| 1778060610 | 12.78° C | 80% | 1002.7 hPa | 0 mm | - | - | - |
| 1778060310 | 12.78° C | 81% | 1002.6 hPa | 0 mm | - | - | - |
| 1778059410 | 12.78° C | 82% | 1002.5 hPa | 0 mm | - | - | - |
| 1778055811 | 11.67° C | 85% | 1002 hPa | 0 mm | - | - | - |
| 1778055210 | 11.67° C | 84% | 1002 hPa | 0 mm | - | - | - |
| 1778054310 | 12.22° C | 85% | 1002 hPa | 0 mm | - | - | - |
| 1778051910 | 12.22° C | 88% | 1001.7 hPa | 0 mm | - | - | - |
| 1778050710 | 11.67° C | 90% | 1001.7 hPa | 0 mm | - | - | - |
| 1778049811 | 11.11° C | 91% | 1001.7 hPa | 0 mm | - | - | - |
| 1778049511 | 11.11° C | 91% | 1001.6 hPa | 0 mm | - | - | - |
| 1778049211 | 11.11° C | 91% | 1001.6 hPa | 0 mm | - | - | - |
| 1778048911 | 11.11° C | 91% | 1001.6 hPa | 0 mm | - | - | - |
| 1778048611 | 11.11° C | 91% | 1001.6 hPa | 0 mm | - | - | - |
| 1778048011 | 10.56° C | 92% | 1001.5 hPa | 0 mm | - | - | - |
| 1778047711 | 10.56° C | 92% | 1001.5 hPa | 0 mm | - | - | - |
| 1778047411 | 10.56° C | 92% | 1001.5 hPa | 0 mm | - | - | - |
| 1778047111 | 10.56° C | 92% | 1001.5 hPa | 0 mm | - | - | - |
| 1778046811 | 10° C | 92% | 1001.4 hPa | 0 mm | - | - | - |
| 1778046511 | 10° C | 92% | 1001.4 hPa | 0 mm | - | - | - |
| 1778046211 | 10° C | 92% | 1001.4 hPa | 0 mm | - | - | - |
| 1778045911 | 10° C | 92% | 1001.3 hPa | 0 mm | - | - | - |
| 1778045611 | 10° C | 92% | 1001.2 hPa | 0 mm | - | - | - |
| 1778045011 | 10° C | 92% | 1001.3 hPa | 0 mm | - | - | - |
| 1778044711 | 10.56° C | 92% | 1001.3 hPa | 0 mm | - | - | - |
* Rain latest hour (hover to see other rain measurements)
** Current wind speed in m/s (hover to see current wind gust speed)